createdAt,value
2018-07-05T00:00:49.430Z,28.00
2018-07-05T00:03:40.648Z,28.10
2018-07-05T00:06:31.914Z,28.10
2018-07-05T00:09:23.664Z,28.20
2018-07-05T00:12:14.925Z,28.30
2018-07-05T00:15:06.540Z,28.40
2018-07-05T00:17:57.950Z,28.50
2018-07-05T00:20:49.013Z,28.70
2018-07-05T00:23:40.664Z,28.70
2018-07-05T00:26:31.868Z,28.90
2018-07-05T00:29:23.019Z,28.90
2018-07-05T00:32:14.573Z,29.00
2018-07-05T00:35:06.077Z,29.10
2018-07-05T00:37:57.857Z,29.10
2018-07-05T00:43:34.815Z,29.30
2018-07-05T00:46:26.257Z,29.40
2018-07-05T00:49:17.641Z,29.40
2018-07-05T00:52:08.913Z,29.50
2018-07-05T00:55:00.480Z,29.60
2018-07-05T00:57:51.907Z,29.70
2018-07-05T01:00:43.078Z,29.80
2018-07-05T01:03:34.468Z,29.80
2018-07-05T01:09:11.223Z,30.00
2018-07-05T01:12:02.780Z,30.00
2018-07-05T01:14:53.868Z,30.00
2018-07-05T01:17:45.103Z,30.00
2018-07-05T01:20:36.587Z,30.40
2018-07-05T01:23:27.996Z,30.70
2018-07-05T01:26:19.608Z,30.80
2018-07-05T01:29:10.996Z,30.90
2018-07-05T01:32:03.634Z,30.90
2018-07-05T01:34:54.715Z,31.00
2018-07-05T01:37:46.016Z,31.00
2018-07-05T01:40:37.436Z,31.20
2018-07-05T01:46:14.574Z,31.30
2018-07-05T01:49:06.044Z,31.40
2018-07-05T01:51:57.430Z,31.60
2018-07-05T01:54:48.969Z,31.70
2018-07-05T01:57:40.912Z,31.90
2018-07-05T02:00:32.438Z,32.00
2018-07-05T02:03:23.622Z,32.10
2018-07-05T02:09:00.581Z,32.40
2018-07-05T02:11:52.020Z,32.60
2018-07-05T02:17:21.961Z,32.60
2018-07-05T02:20:13.309Z,33.20
2018-07-05T02:23:04.653Z,33.10
2018-07-05T02:25:55.969Z,33.20
2018-07-05T02:28:47.357Z,33.20
2018-07-05T02:31:38.968Z,33.20
2018-07-05T02:34:30.149Z,33.30
2018-07-05T02:37:39.961Z,33.40
2018-07-05T02:40:31.123Z,33.50
2018-07-05T02:43:24.693Z,33.50
2018-07-05T02:46:16.015Z,33.60
2018-07-05T02:49:07.795Z,33.70
2018-07-05T02:54:44.467Z,33.90
2018-07-05T03:00:21.227Z,34.00
2018-07-05T03:03:12.493Z,34.00
2018-07-05T03:06:04.125Z,34.00
2018-07-05T03:08:55.302Z,34.10
2018-07-05T03:17:17.718Z,34.30
2018-07-05T03:20:09.014Z,34.30
2018-07-05T03:23:00.297Z,34.30
2018-07-05T03:28:37.279Z,34.60
2018-07-05T03:31:28.685Z,34.60
2018-07-05T03:34:20.246Z,34.70
2018-07-05T03:37:11.685Z,34.80
2018-07-05T03:40:02.928Z,34.80
2018-07-05T03:42:54.312Z,34.90
2018-07-05T03:45:45.996Z,35.00
2018-07-05T03:48:37.670Z,34.90
2018-07-05T03:51:32.615Z,35.00
2018-07-05T03:54:24.213Z,35.00
2018-07-05T03:57:22.848Z,35.10
2018-07-05T04:00:17.137Z,35.20
2018-07-05T04:03:08.637Z,35.20
2018-07-05T04:05:59.951Z,35.40
2018-07-05T04:08:51.554Z,35.40
2018-07-05T04:11:43.017Z,35.60
2018-07-05T04:14:34.475Z,35.70
2018-07-05T04:17:25.846Z,35.70
2018-07-05T04:20:17.944Z,35.80
2018-07-05T04:23:09.093Z,35.90
2018-07-05T04:26:00.598Z,36.10
2018-07-05T04:28:52.006Z,36.20
2018-07-05T04:31:43.420Z,36.30
2018-07-05T04:34:34.742Z,36.40
2018-07-05T04:37:26.051Z,36.50
2018-07-05T04:40:17.257Z,36.60
2018-07-05T04:43:08.681Z,36.60
2018-07-05T04:45:59.983Z,36.60
2018-07-05T04:48:51.459Z,36.50
2018-07-05T04:51:42.797Z,36.50
2018-07-05T04:54:33.997Z,36.60
2018-07-05T04:57:25.612Z,36.50
2018-07-05T05:00:16.955Z,37.10
2018-07-05T05:03:08.321Z,36.50
2018-07-05T05:05:59.672Z,36.40
2018-07-05T05:08:51.207Z,36.40
2018-07-05T05:14:28.586Z,36.50
2018-07-05T05:17:20.041Z,36.60
2018-07-05T05:22:56.953Z,36.70
2018-07-05T05:25:48.464Z,36.80
2018-07-05T05:31:25.437Z,36.30
2018-07-05T05:34:16.776Z,37.80
2018-07-05T05:37:08.344Z,37.20
2018-07-05T05:39:59.852Z,37.10
2018-07-05T05:42:51.193Z,37.10
2018-07-05T05:48:28.146Z,36.80
2018-07-05T05:51:19.401Z,36.50
2018-07-05T05:54:10.685Z,36.30
2018-07-05T05:57:01.825Z,36.10
2018-07-05T06:02:38.820Z,35.40
2018-07-05T06:05:30.089Z,35.10
2018-07-05T06:08:21.938Z,35.00
2018-07-05T06:11:20.640Z,34.90
2018-07-05T06:14:19.289Z,34.90
2018-07-05T06:17:17.690Z,34.70
2018-07-05T06:20:08.987Z,34.60
2018-07-05T06:23:00.302Z,34.40
2018-07-05T06:25:51.694Z,34.30
2018-07-05T06:28:43.137Z,34.10
2018-07-05T06:31:34.395Z,34.00
2018-07-05T06:34:25.728Z,33.90
2018-07-05T06:37:17.106Z,33.80
2018-07-05T06:40:08.753Z,33.70
2018-07-05T06:43:00.206Z,33.60
2018-07-05T06:45:51.513Z,33.40
2018-07-05T06:48:42.700Z,33.30
2018-07-05T06:51:34.032Z,33.20
2018-07-05T06:54:25.498Z,33.10
2018-07-05T06:57:16.948Z,33.00
2018-07-05T07:00:08.607Z,33.00
2018-07-05T07:02:59.912Z,32.90
2018-07-05T07:05:51.313Z,32.90
2018-07-05T07:08:42.820Z,32.90
2018-07-05T07:11:34.178Z,32.80
2018-07-05T07:14:25.340Z,32.80
2018-07-05T07:17:16.677Z,32.90
2018-07-05T07:20:08.012Z,33.30
2018-07-05T07:25:44.912Z,33.70
2018-07-05T07:28:36.338Z,33.50
2018-07-05T07:31:27.863Z,33.40
2018-07-05T07:34:19.096Z,33.40
2018-07-05T07:39:56.228Z,33.10
2018-07-05T07:42:28.831Z,32.70
2018-07-05T07:44:55.153Z,32.30
2018-07-05T07:47:21.472Z,31.70
2018-07-05T07:49:47.813Z,31.20
2018-07-05T07:52:14.113Z,30.50
2018-07-05T07:54:40.529Z,30.00
2018-07-05T07:57:06.893Z,29.60
2018-07-05T07:59:33.209Z,29.30
2018-07-05T08:01:59.531Z,28.90
2018-07-05T08:04:25.848Z,28.60
2018-07-05T08:06:52.173Z,28.10
2018-07-05T08:09:18.494Z,27.70
2018-07-05T08:11:44.794Z,27.20
2018-07-05T08:14:11.090Z,26.60
2018-07-05T08:16:37.549Z,25.90
2018-07-05T08:19:03.856Z,25.40
2018-07-05T08:21:30.212Z,25.10
2018-07-05T08:23:56.550Z,24.80
2018-07-05T08:26:22.877Z,24.40
2018-07-05T08:28:49.185Z,23.90
2018-07-05T08:31:15.573Z,23.60
2018-07-05T08:33:41.913Z,23.40
2018-07-05T08:36:08.242Z,23.10
2018-07-05T08:38:34.533Z,22.80
2018-07-05T08:41:00.899Z,22.60
2018-07-05T08:43:27.205Z,22.30
2018-07-05T08:45:53.477Z,22.00
2018-07-05T08:48:19.825Z,21.80
2018-07-05T08:53:13.176Z,21.10
2018-07-05T08:55:39.532Z,20.80
2018-07-05T08:58:06.232Z,20.40
2018-07-05T09:03:00.409Z,19.60
2018-07-05T09:05:26.727Z,19.20
2018-07-05T09:07:53.013Z,18.90
2018-07-05T09:10:19.324Z,18.80
2018-07-05T09:12:56.676Z,18.80
2018-07-05T09:15:32.624Z,18.90
2018-07-05T09:17:59.074Z,19.10
2018-07-05T09:20:25.356Z,19.20
2018-07-05T09:25:18.569Z,19.30
2018-07-05T09:27:44.905Z,19.30
2018-07-05T09:30:11.207Z,19.20
2018-07-05T09:32:37.736Z,19.20
2018-07-05T09:35:04.047Z,18.90
2018-07-05T09:37:30.356Z,18.80
2018-07-05T09:39:56.664Z,18.60
2018-07-05T09:44:49.715Z,18.10
2018-07-05T09:47:16.030Z,17.90
2018-07-05T09:49:42.309Z,17.70
2018-07-05T09:52:08.585Z,17.40
2018-07-05T09:54:34.901Z,17.20
2018-07-05T09:57:01.206Z,16.90
2018-07-05T09:59:27.517Z,16.70
2018-07-05T10:01:53.844Z,16.50
2018-07-05T10:04:20.280Z,16.50
2018-07-05T10:06:46.617Z,16.50
2018-07-05T10:09:12.921Z,16.50
2018-07-05T10:14:06.066Z,16.40
2018-07-05T10:16:32.389Z,16.10
2018-07-05T10:18:58.753Z,16.20
2018-07-05T10:23:51.959Z,15.70
2018-07-05T10:26:18.261Z,15.40
2018-07-05T10:29:03.530Z,15.20
2018-07-05T10:31:54.964Z,15.10
2018-07-05T10:34:27.609Z,15.00
2018-07-05T10:36:53.977Z,15.00
2018-07-05T10:39:20.278Z,15.10
2018-07-05T10:42:05.291Z,15.30
2018-07-05T10:44:56.686Z,15.50
2018-07-05T10:47:48.180Z,15.80
2018-07-05T10:50:39.302Z,16.00
2018-07-05T10:53:30.953Z,16.10
2018-07-05T10:59:07.874Z,15.90
2018-07-05T11:01:59.320Z,16.50
2018-07-05T11:04:50.587Z,16.70
2018-07-05T11:07:41.872Z,17.10
2018-07-05T11:10:33.285Z,17.30
2018-07-05T11:13:24.608Z,17.60
2018-07-05T11:16:16.065Z,17.70
2018-07-05T11:19:07.465Z,17.70
2018-07-05T11:21:58.760Z,17.60
2018-07-05T11:24:50.205Z,17.70
2018-07-05T11:33:12.753Z,18.00
2018-07-05T11:36:04.249Z,18.20
2018-07-05T11:38:55.605Z,18.60
2018-07-05T11:41:46.933Z,18.80
2018-07-05T11:44:40.615Z,18.90
2018-07-05T11:47:32.010Z,18.90
2018-07-05T11:50:23.813Z,18.90
2018-07-05T11:56:00.861Z,18.70
2018-07-05T11:58:52.229Z,18.60
2018-07-05T12:01:43.657Z,18.30
2018-07-05T12:04:35.032Z,18.20
2018-07-05T12:07:27.548Z,18.20
2018-07-05T12:13:05.602Z,18.00
2018-07-05T12:15:56.977Z,17.80
2018-07-05T12:18:50.116Z,17.60
2018-07-05T12:21:41.600Z,17.50
2018-07-05T12:24:33.322Z,17.40
2018-07-05T12:27:25.101Z,17.40
2018-07-05T12:30:22.136Z,17.60
2018-07-05T12:33:20.455Z,17.70
2018-07-05T12:36:11.579Z,17.80
2018-07-05T12:39:07.595Z,17.80
2018-07-05T12:41:59.156Z,17.90
2018-07-05T12:44:50.697Z,17.90
2018-07-05T12:47:41.778Z,17.90
2018-07-05T12:53:18.791Z,17.80
2018-07-05T12:56:10.059Z,17.80
2018-07-05T13:01:46.833Z,18.10
2018-07-05T13:04:38.185Z,18.20
2018-07-05T13:07:29.515Z,18.30
2018-07-05T13:10:20.708Z,18.20
2018-07-05T13:13:12.203Z,18.20
2018-07-05T13:16:03.510Z,18.00
2018-07-05T13:18:55.253Z,17.90
2018-07-05T13:21:46.577Z,17.90
2018-07-05T13:27:23.655Z,17.90
2018-07-05T13:30:15.008Z,17.90
2018-07-05T13:35:52.478Z,17.80
2018-07-05T13:38:43.665Z,17.80
2018-07-05T13:44:20.380Z,18.00
2018-07-05T13:47:12.654Z,18.00
2018-07-05T13:50:03.971Z,18.10
2018-07-05T13:52:55.361Z,18.20
2018-07-05T13:55:46.822Z,18.30
2018-07-05T13:58:38.045Z,18.50
2018-07-05T14:04:14.999Z,18.50
2018-07-05T14:09:52.182Z,18.60
2018-07-05T14:12:43.511Z,18.50
2018-07-05T14:15:34.857Z,18.40
2018-07-05T14:18:26.101Z,18.50
2018-07-05T14:21:17.376Z,18.40
2018-07-05T14:24:08.724Z,18.30
2018-07-05T14:27:00.265Z,18.40
2018-07-05T14:29:51.781Z,18.40
2018-07-05T14:32:43.026Z,18.40
2018-07-05T14:35:34.311Z,18.40
2018-07-05T14:38:25.635Z,18.30
2018-07-05T14:41:16.943Z,18.30
2018-07-05T14:44:08.248Z,18.10
2018-07-05T14:46:59.634Z,18.20
2018-07-05T14:49:51.227Z,18.30
2018-07-05T14:52:42.563Z,18.50
2018-07-05T14:58:19.441Z,18.60
2018-07-05T15:01:10.973Z,18.80
2018-07-05T15:04:02.019Z,18.60
2018-07-05T15:06:53.557Z,18.50
2018-07-05T15:09:45.142Z,18.60
2018-07-05T15:15:22.048Z,18.60
2018-07-05T15:20:59.001Z,18.70
2018-07-05T15:23:50.251Z,18.80
2018-07-05T15:26:41.594Z,18.80
2018-07-05T15:29:32.865Z,18.80
2018-07-05T15:35:09.760Z,18.60
2018-07-05T15:40:46.726Z,18.70
2018-07-05T15:46:24.140Z,18.90
2018-07-05T15:49:15.288Z,19.00
2018-07-05T15:52:06.509Z,19.00
2018-07-05T15:54:57.928Z,19.00
2018-07-05T16:00:34.409Z,19.20
2018-07-05T16:03:25.785Z,19.40
2018-07-05T16:06:17.025Z,19.60
2018-07-05T16:11:54.880Z,20.20
2018-07-05T16:14:46.580Z,20.90
2018-07-05T16:17:37.801Z,20.90
2018-07-05T16:20:29.224Z,21.10
2018-07-05T16:23:20.509Z,21.20
2018-07-05T16:26:11.852Z,21.50
2018-07-05T16:31:48.981Z,21.90
2018-07-05T16:34:40.485Z,22.00
2018-07-05T16:37:32.017Z,22.20
2018-07-05T16:40:23.437Z,22.40
2018-07-05T16:43:14.536Z,22.50
2018-07-05T16:46:05.796Z,22.70
2018-07-05T16:48:57.124Z,22.90
2018-07-05T16:51:48.473Z,23.10
2018-07-05T16:54:39.960Z,23.30
2018-07-05T16:57:31.346Z,23.40
2018-07-05T17:00:22.952Z,23.70
2018-07-05T17:03:14.380Z,23.70
2018-07-05T17:06:05.803Z,23.90
2018-07-05T17:08:56.997Z,24.00
2018-07-05T17:11:48.402Z,24.20
2018-07-05T17:14:39.652Z,24.30
2018-07-05T17:17:30.989Z,24.40
2018-07-05T17:20:22.173Z,24.60
2018-07-05T17:25:59.025Z,24.90
2018-07-05T17:31:36.135Z,25.20
2018-07-05T17:34:27.766Z,25.20
2018-07-05T17:40:04.885Z,25.30
2018-07-05T17:42:56.109Z,25.40
2018-07-05T17:45:47.693Z,25.40
2018-07-05T17:48:39.084Z,25.40
2018-07-05T17:51:30.438Z,25.40
2018-07-05T17:54:21.766Z,25.30
2018-07-05T17:57:13.215Z,25.30
2018-07-05T18:00:04.724Z,25.40
2018-07-05T18:02:56.165Z,25.40
2018-07-05T18:05:47.329Z,25.50
2018-07-05T18:08:38.855Z,25.40
2018-07-05T18:14:16.059Z,25.50
2018-07-05T18:17:07.336Z,25.50
2018-07-05T18:19:58.636Z,25.50
2018-07-05T18:22:49.887Z,25.60
2018-07-05T18:25:41.274Z,25.70
2018-07-05T18:28:32.637Z,25.70
2018-07-05T18:34:09.413Z,25.70
2018-07-05T18:37:00.848Z,25.70
2018-07-05T18:39:52.179Z,26.10
2018-07-05T18:42:43.813Z,25.60
2018-07-05T18:45:35.073Z,25.60
2018-07-05T18:48:26.681Z,25.70
2018-07-05T18:51:17.892Z,25.70
2018-07-05T18:56:54.946Z,25.80
2018-07-05T18:59:46.449Z,25.80
2018-07-05T19:05:23.443Z,26.10
2018-07-05T19:08:14.781Z,26.20
2018-07-05T19:11:06.129Z,26.30
2018-07-05T19:13:57.776Z,26.40
2018-07-05T19:16:49.321Z,26.50
2018-07-05T19:19:40.668Z,26.60
2018-07-05T19:22:31.754Z,26.70
2018-07-05T19:25:23.069Z,26.90
2018-07-05T19:28:14.403Z,27.10
2018-07-05T19:31:05.851Z,27.20
2018-07-05T19:33:57.241Z,27.40
2018-07-05T19:36:48.631Z,27.60
2018-07-05T19:39:40.051Z,27.90
2018-07-05T19:42:31.196Z,28.30
2018-07-05T19:45:22.817Z,28.50
2018-07-05T19:48:14.218Z,28.70
2018-07-05T19:51:05.593Z,29.00
2018-07-05T19:56:42.481Z,29.50
2018-07-05T20:02:19.412Z,29.90
2018-07-05T20:05:11.062Z,29.80
2018-07-05T20:08:02.313Z,30.30
2018-07-05T20:10:58.771Z,30.60
2018-07-05T20:13:50.016Z,30.80
2018-07-05T20:16:41.592Z,31.10
2018-07-05T20:19:32.894Z,31.40
2018-07-05T20:27:56.174Z,32.00
2018-07-05T20:30:47.517Z,32.30
2018-07-05T20:33:39.029Z,32.50
2018-07-05T20:36:30.388Z,32.70
2018-07-05T20:39:21.914Z,33.00
2018-07-05T20:42:13.369Z,33.10
2018-07-05T20:45:04.804Z,33.30
2018-07-05T20:47:56.231Z,33.50
2018-07-05T20:50:47.603Z,33.80
2018-07-05T20:53:39.055Z,34.00
2018-07-05T20:59:16.065Z,34.20
2018-07-05T21:02:07.219Z,34.40
2018-07-05T21:04:58.596Z,34.70
2018-07-05T21:07:49.892Z,34.70
2018-07-05T21:10:40.949Z,34.90
2018-07-05T21:13:32.381Z,35.00
2018-07-05T21:16:23.729Z,35.10
2018-07-05T21:19:15.078Z,35.20
2018-07-05T21:22:06.464Z,35.40
2018-07-05T21:24:57.845Z,35.50
2018-07-05T21:27:49.166Z,35.80
2018-07-05T21:30:40.762Z,36.10
2018-07-05T21:33:32.176Z,36.30
2018-07-05T21:41:55.480Z,37.10
2018-07-05T21:44:46.910Z,37.30
2018-07-05T21:47:38.278Z,37.40
2018-07-05T21:50:29.857Z,37.60
2018-07-05T21:53:21.128Z,37.70
2018-07-05T21:58:58.685Z,38.20
2018-07-05T22:01:50.541Z,38.40
2018-07-05T22:07:27.166Z,38.80
2018-07-05T22:13:03.971Z,39.20
2018-07-05T22:15:55.344Z,39.30
2018-07-05T22:18:52.814Z,39.40
2018-07-05T22:21:49.866Z,39.50
2018-07-05T22:24:47.357Z,39.70
2018-07-05T22:28:46.002Z,39.80
2018-07-05T22:31:37.405Z,40.00
2018-07-05T22:34:29.305Z,40.00
2018-07-05T22:40:06.777Z,40.70
2018-07-05T22:42:58.029Z,40.80
2018-07-05T22:48:34.910Z,41.10
2018-07-05T22:51:26.349Z,41.30
2018-07-05T22:54:17.615Z,41.30
2018-07-05T22:57:09.090Z,41.40
2018-07-05T23:00:00.432Z,41.60
2018-07-05T23:05:37.585Z,41.90
2018-07-05T23:08:28.893Z,42.20
2018-07-05T23:11:19.938Z,42.00
2018-07-05T23:14:11.158Z,42.10
2018-07-05T23:17:02.585Z,42.30
2018-07-05T23:19:54.067Z,42.30
2018-07-05T23:22:45.451Z,42.40
2018-07-05T23:25:36.803Z,42.50
2018-07-05T23:28:28.282Z,42.60
2018-07-05T23:31:19.657Z,42.60
2018-07-05T23:34:11.120Z,42.70
2018-07-05T23:37:02.418Z,42.80
2018-07-05T23:39:53.865Z,42.80
2018-07-05T23:42:45.468Z,42.80
2018-07-05T23:45:37.101Z,42.80
2018-07-05T23:48:28.378Z,42.70
2018-07-05T23:51:19.821Z,42.80
2018-07-05T23:54:11.149Z,42.80
2018-07-05T23:57:02.550Z,42.80
